Time;durP1;ratioP1;P1;durP2;ratioP2;P2;SDS_P1;SDS_P2;PMS_P1;PMS_P2;Temp;Humidity;BMP_temperature;BMP_pressure;BME280_temperature;BME280_humidity;BME280_pressure;Samples;Min_cycle;Max_cycle;Signal;HPM_P1;HPM_P2
2021/08/15 00:01:12;;;;;;;25.20;7.88;;;15.60;88.60;;;;;;5057131;28;20199;-86
2021/08/15 00:03:38;;;;;;;29.65;7.75;;;15.50;88.70;;;;;;5075310;28;20176;-87
2021/08/15 00:06:04;;;;;;;22.77;7.13;;;15.50;88.80;;;;;;5057332;28;20639;-87
2021/08/15 00:08:30;;;;;;;21.52;7.35;;;15.50;88.70;;;;;;5056994;28;20183;-86
2021/08/15 00:10:56;;;;;;;21.17;6.90;;;15.50;88.70;;;;;;5056773;28;20219;-87
2021/08/15 00:13:23;;;;;;;21.70;7.60;;;15.50;88.80;;;;;;5056784;28;20183;-86
2021/08/15 00:15:48;;;;;;;19.87;7.50;;;15.60;88.70;;;;;;5056798;28;20195;-86
2021/08/15 00:18:14;;;;;;;22.05;7.18;;;15.70;88.50;;;;;;5074938;28;20195;-87
2021/08/15 00:20:40;;;;;;;17.35;7.43;;;15.70;88.60;;;;;;5074577;28;20540;-87
2021/08/15 00:23:06;;;;;;;19.23;7.38;;;15.70;88.70;;;;;;5056720;28;20554;-87
2021/08/15 00:25:31;;;;;;;21.27;7.13;;;15.80;88.80;;;;;;5074442;28;20186;-87
2021/08/15 00:27:57;;;;;;;18.57;6.43;;;15.80;89.00;;;;;;5056613;28;20175;-87
2021/08/15 00:30:23;;;;;;;20.40;7.50;;;15.80;89.40;;;;;;5056560;28;20202;-87
2021/08/15 00:32:48;;;;;;;22.65;7.07;;;15.90;89.40;;;;;;5057156;28;20609;-87
2021/08/15 00:35:14;;;;;;;18.23;7.55;;;15.80;89.30;;;;;;5056352;28;20575;-87
2021/08/15 00:37:40;;;;;;;20.88;6.93;;;15.90;89.10;;;;;;5056863;28;20673;-87
2021/08/15 00:40:07;;;;;;;25.33;6.95;;;15.90;88.70;;;;;;5074103;28;20287;-87
2021/08/15 00:42:33;;;;;;;19.30;7.10;;;15.90;88.60;;;;;;5056696;28;20210;-87
2021/08/15 00:44:59;;;;;;;20.55;7.13;;;15.90;88.60;;;;;;5056305;28;20601;-87
2021/08/15 00:47:25;;;;;;;18.80;6.77;;;15.90;88.70;;;;;;5056244;28;20186;-87
2021/08/15 00:49:50;;;;;;;21.75;6.65;;;15.90;88.70;;;;;;5056179;28;20199;-87
2021/08/15 00:52:16;;;;;;;18.73;6.03;;;15.90;88.40;;;;;;5056216;28;20175;-87
2021/08/15 00:54:42;;;;;;;19.08;6.38;;;15.90;88.20;;;;;;5056005;28;20669;-86
2021/08/15 00:57:08;;;;;;;23.58;6.47;;;16.00;88.10;;;;;;5055645;28;20254;-86
2021/08/15 00:59:37;;;;;;;17.80;6.10;;;16.00;88.20;;;;;;5074106;28;20255;-86
2021/08/15 01:02:03;;;;;;;19.27;7.18;;;16.00;88.10;;;;;;5055932;28;20179;-86
2021/08/15 01:04:29;;;;;;;23.52;6.88;;;16.00;88.10;;;;;;5055976;28;20575;-86
2021/08/15 01:06:55;;;;;;;21.67;6.82;;;16.00;87.90;;;;;;5055927;28;20214;-86
2021/08/15 01:09:21;;;;;;;21.20;6.93;;;16.10;87.50;;;;;;5055864;28;20184;-86
2021/08/15 01:11:47;;;;;;;14.88;5.57;;;16.10;87.30;;;;;;5055632;28;20211;-86
2021/08/15 01:14:13;;;;;;;15.60;5.20;;;16.10;87.10;;;;;;5055704;28;20175;-87
2021/08/15 01:16:43;;;;;;;15.85;6.30;;;16.10;87.00;;;;;;5055592;28;20222;-86
2021/08/15 01:19:10;;;;;;;13.82;5.43;;;16.10;87.00;;;;;;5055668;28;20175;-86
2021/08/15 01:21:37;;;;;;;18.05;6.03;;;16.10;86.90;;;;;;5055713;28;20226;-87
2021/08/15 01:24:04;;;;;;;19.00;5.68;;;16.10;86.70;;;;;;5056077;28;20225;-87
2021/08/15 01:26:30;;;;;;;16.40;5.85;;;16.20;86.40;;;;;;5073439;28;20171;-87
2021/08/15 01:28:56;;;;;;;17.67;6.32;;;16.20;86.50;;;;;;5056394;28;20210;-87
2021/08/15 01:31:23;;;;;;;17.02;6.10;;;16.20;86.60;;;;;;5055451;28;20576;-87
2021/08/15 01:33:49;;;;;;;17.88;5.57;;;16.20;86.30;;;;;;5055443;28;20189;-87
2021/08/15 01:36:17;;;;;;;15.65;5.38;;;16.20;86.10;;;;;;5055410;28;20203;-87
2021/08/15 01:38:45;;;;;;;20.23;6.35;;;16.20;86.10;;;;;;5073284;28;20171;-87
2021/08/15 01:41:11;;;;;;;14.70;4.95;;;16.20;86.10;;;;;;5055284;28;20191;-86
2021/08/15 01:43:50;;;;;;;17.88;5.25;;;16.10;85.80;;;;;;5055363;28;20636;-86
2021/08/15 01:46:17;;;;;;;21.83;6.22;;;16.20;85.70;;;;;;5055333;28;20221;-86
2021/08/15 01:48:43;;;;;;;22.17;6.07;;;16.20;85.80;;;;;;5073187;28;20179;-87
2021/08/15 01:51:09;;;;;;;14.63;5.57;;;16.20;85.60;;;;;;5073050;28;20210;-87
2021/08/15 01:53:34;;;;;;;23.77;6.53;;;16.20;85.60;;;;;;5056027;28;20200;-86
2021/08/15 01:56:00;;;;;;;19.92;5.50;;;16.20;85.70;;;;;;5073447;28;20585;-87
2021/08/15 01:58:26;;;;;;;20.17;5.82;;;16.20;85.50;;;;;;5055192;28;20647;-87
2021/08/15 02:00:51;;;;;;;13.88;6.40;;;16.20;85.70;;;;;;5073071;28;20191;-87
2021/08/15 02:03:17;;;;;;;16.20;5.03;;;16.20;85.70;;;;;;5055327;28;20175;-86
2021/08/15 02:05:43;;;;;;;17.17;5.60;;;16.20;85.20;;;;;;5055109;28;20547;-86
2021/08/15 02:08:10;;;;;;;13.53;5.00;;;16.20;85.20;;;;;;5057947;28;20665;-86
2021/08/15 02:10:36;;;;;;;16.63;6.07;;;16.20;85.40;;;;;;5077464;28;20210;-87
2021/08/15 02:13:04;;;;;;;14.95;5.43;;;16.20;85.40;;;;;;5059167;28;20182;-87
2021/08/15 02:15:31;;;;;;;17.00;5.57;;;16.20;85.50;;;;;;5076980;28;20615;-87
2021/08/15 02:17:59;;;;;;;21.58;6.18;;;16.20;85.50;;;;;;5076929;28;20190;-86
2021/08/15 02:20:24;;;;;;;13.80;5.40;;;16.20;85.70;;;;;;5059016;28;20222;-86
2021/08/15 02:22:50;;;;;;;20.60;6.05;;;16.10;85.90;;;;;;5059532;28;20225;-86
2021/08/15 02:25:17;;;;;;;15.40;5.65;;;16.10;85.90;;;;;;5076751;28;20176;-86
2021/08/15 02:27:43;;;;;;;13.23;6.20;;;16.20;86.30;;;;;;5058869;28;20187;-87
2021/08/15 02:30:11;;;;;;;22.75;7.28;;;16.10;87.20;;;;;;5076984;28;20195;-87
2021/08/15 02:32:37;;;;;;;20.88;6.82;;;15.80;88.10;;;;;;5058990;28;20175;-86
2021/08/15 02:35:05;;;;;;;17.45;6.68;;;15.80;88.60;;;;;;5058699;28;20563;-86
2021/08/15 02:37:32;;;;;;;15.45;7.68;;;15.80;89.00;;;;;;5058681;28;20259;-87
2021/08/15 02:39:59;;;;;;;17.08;7.47;;;15.70;89.40;;;;;;5058516;28;20191;-87
2021/08/15 02:42:32;;;;;;;18.85;8.15;;;15.60;89.90;;;;;;5058664;28;20176;-87
2021/08/15 02:44:58;;;;;;;19.83;8.15;;;15.60;90.20;;;;;;5076496;28;20160;-87
2021/08/15 02:47:25;;;;;;;23.30;8.53;;;15.50;90.50;;;;;;5058825;28;20209;-87
2021/08/15 02:49:50;;;;;;;22.30;8.63;;;15.50;91.00;;;;;;5058404;28;20199;-87
2021/08/15 02:52:17;;;;;;;25.03;8.77;;;15.50;91.10;;;;;;5058453;28;20294;-87
2021/08/15 02:54:43;;;;;;;14.97;8.13;;;15.50;91.20;;;;;;5058343;28;20176;-87
2021/08/15 02:57:09;;;;;;;20.35;9.98;;;15.40;91.50;;;;;;5058304;28;20669;-87
2021/08/15 02:59:39;;;;;;;18.30;8.97;;;15.40;91.60;;;;;;5076121;28;20163;-87
2021/08/15 03:02:07;;;;;;;21.40;10.30;;;15.40;91.70;;;;;;5058312;28;20206;-87
2021/08/15 03:04:32;;;;;;;20.17;9.37;;;15.30;92.20;;;;;;5076187;28;20173;-87
2021/08/15 03:06:58;;;;;;;18.57;9.07;;;15.30;92.50;;;;;;5058092;28;20175;-87
2021/08/15 03:09:23;;;;;;;19.47;9.17;;;15.30;92.60;;;;;;5058331;28;20515;-87
2021/08/15 03:11:49;;;;;;;17.73;9.03;;;15.30;92.30;;;;;;5058188;28;20195;-88
2021/08/15 03:14:15;;;;;;;13.97;8.47;;;15.30;92.50;;;;;;5058598;28;20228;-88
2021/08/15 03:16:40;;;;;;;15.83;8.43;;;15.30;92.70;;;;;;5075793;28;20195;-87
2021/08/15 03:19:06;;;;;;;15.20;8.67;;;15.30;92.80;;;;;;5057225;28;20179;-88
2021/08/15 03:21:34;;;;;;;15.77;9.47;;;15.30;92.80;;;;;;5057876;28;20195;-88
2021/08/15 03:24:01;;;;;;;17.60;8.10;;;15.30;92.90;;;;;;5057832;28;20258;-88
2021/08/15 03:26:26;;;;;;;14.40;8.67;;;15.40;92.90;;;;;;5076020;28;20643;-87
2021/08/15 03:28:52;;;;;;;18.47;8.50;;;15.30;92.90;;;;;;5057957;28;20207;-87
2021/08/15 03:31:17;;;;;;;17.30;8.90;;;15.40;92.90;;;;;;5075599;28;20201;-88
2021/08/15 03:33:43;;;;;;;12.00;8.23;;;15.40;93.00;;;;;;5057730;28;20172;-88
2021/08/15 03:36:09;;;;;;;13.60;8.23;;;15.30;93.00;;;;;;5058598;28;20222;-88
2021/08/15 03:38:34;;;;;;;16.70;9.43;;;15.40;93.00;;;;;;5075801;28;20155;-87
2021/08/15 03:41:00;;;;;;;15.50;8.87;;;15.40;93.00;;;;;;5057423;28;20678;-88
2021/08/15 03:43:26;;;;;;;13.30;8.47;;;15.40;93.00;;;;;;5057865;28;20222;-87
2021/08/15 03:45:51;;;;;;;10.95;7.80;;;15.40;93.00;;;;;;5057441;28;20175;-88
2021/08/15 03:48:17;;;;;;;13.18;7.80;;;15.40;93.00;;;;;;5058017;28;20221;-88
2021/08/15 03:50:43;;;;;;;11.00;8.53;;;15.50;93.00;;;;;;5057289;28;20759;-87
2021/08/15 03:53:08;;;;;;;11.98;8.13;;;15.50;92.80;;;;;;5057260;28;20180;-87
2021/08/15 03:55:34;;;;;;;14.20;7.72;;;15.60;92.90;;;;;;5057284;28;20245;-87
2021/08/15 03:57:59;;;;;;;13.13;7.72;;;15.60;92.90;;;;;;5057270;28;20172;-88
2021/08/15 04:00:25;;;;;;;13.68;7.60;;;15.60;92.90;;;;;;5057064;28;20200;-87
2021/08/15 04:02:51;;;;;;;16.73;7.55;;;15.50;93.00;;;;;;5057238;28;20180;-87
2021/08/15 04:05:16;;;;;;;13.40;8.40;;;15.60;93.00;;;;;;5057333;28;20183;-87
2021/08/15 04:07:42;;;;;;;10.18;6.97;;;15.60;92.90;;;;;;5057035;28;20584;-87
2021/08/15 04:10:09;;;;;;;19.30;7.68;;;15.50;93.00;;;;;;5056821;28;20260;-87
2021/08/15 04:12:35;;;;;;;12.73;7.30;;;15.60;93.00;;;;;;5056827;28;20183;-87
2021/08/15 04:15:01;;;;;;;16.20;6.65;;;15.50;93.00;;;;;;5056847;28;20633;-88
2021/08/15 04:17:27;;;;;;;12.23;7.40;;;15.50;93.10;;;;;;5056783;28;20175;-87
2021/08/15 04:19:53;;;;;;;10.30;7.35;;;15.50;93.10;;;;;;5074601;28;20245;-87
2021/08/15 04:22:18;;;;;;;10.55;7.60;;;15.50;93.10;;;;;;5057876;28;20175;-87
2021/08/15 04:24:44;;;;;;;12.23;8.45;;;15.50;93.10;;;;;;5056795;28;20193;-87
2021/08/15 04:27:09;;;;;;;11.73;7.88;;;15.50;93.10;;;;;;5056712;28;20232;-87
2021/08/15 04:29:37;;;;;;;13.13;8.13;;;15.60;93.10;;;;;;5074427;28;20251;-87
2021/08/15 04:32:03;;;;;;;19.10;8.48;;;15.60;93.10;;;;;;5055592;28;20199;-87
2021/08/15 04:34:29;;;;;;;10.43;8.33;;;15.50;93.10;;;;;;5056461;28;20218;-87
2021/08/15 04:36:54;;;;;;;15.93;8.95;;;15.50;93.10;;;;;;5056782;28;20206;-87
2021/08/15 04:39:20;;;;;;;17.13;9.30;;;15.60;93.20;;;;;;5056461;28;20639;-87
2021/08/15 04:41:46;;;;;;;16.75;8.45;;;15.50;93.20;;;;;;5056282;28;20203;-87
2021/08/15 04:44:11;;;;;;;17.95;9.35;;;15.50;93.30;;;;;;5056288;28;20180;-87
2021/08/15 04:46:37;;;;;;;14.60;8.60;;;15.50;93.30;;;;;;5056253;28;20213;-87
2021/08/15 04:49:03;;;;;;;10.60;6.95;;;15.60;93.20;;;;;;5074151;28;20235;-88
2021/08/15 04:51:37;;;;;;;15.52;7.57;;;15.60;93.00;;;;;;5090859;28;20544;-89
2021/08/15 04:54:03;;;;;;;12.60;7.05;;;15.60;92.90;;;;;;5090880;28;20284;-89
2021/08/15 04:56:28;;;;;;;13.77;7.70;;;15.60;92.80;;;;;;5089671;28;20178;-89
2021/08/15 04:58:54;;;;;;;10.45;6.70;;;15.50;92.70;;;;;;5089682;28;20175;-89
2021/08/15 05:01:19;;;;;;;12.15;6.70;;;15.50;92.80;;;;;;5089731;28;20203;-89
2021/08/15 05:03:45;;;;;;;9.48;6.78;;;15.50;92.80;;;;;;5090803;28;20212;-89
2021/08/15 05:06:11;;;;;;;14.38;6.53;;;15.50;92.90;;;;;;5093070;28;20185;-89
2021/08/15 05:08:36;;;;;;;14.82;6.28;;;15.40;92.70;;;;;;5091716;28;20175;-87
2021/08/15 05:11:02;;;;;;;10.18;4.97;;;15.40;92.60;;;;;;5093143;28;20576;-89
2021/08/15 05:13:28;;;;;;;8.02;4.70;;;15.30;92.40;;;;;;5094777;28;20186;-89
2021/08/15 05:15:54;;;;;;;8.75;5.03;;;15.30;92.00;;;;;;5093907;28;20178;-89
2021/08/15 05:18:20;;;;;;;9.00;5.30;;;15.20;91.60;;;;;;5095433;28;20170;-89
2021/08/15 05:20:46;;;;;;;9.43;4.70;;;15.30;91.60;;;;;;5095007;28;20214;-89
2021/08/15 05:23:12;;;;;;;12.43;5.55;;;15.30;91.60;;;;;;5094692;28;20199;-89
2021/08/15 05:25:39;;;;;;;6.15;4.57;;;15.30;91.30;;;;;;5093461;28;20552;-89
2021/08/15 05:28:05;;;;;;;11.30;5.47;;;15.30;91.50;;;;;;5093680;28;20181;-89
2021/08/15 05:30:31;;;;;;;8.43;4.50;;;15.20;91.50;;;;;;5093543;28;20213;-89
2021/08/15 05:32:57;;;;;;;8.97;4.80;;;15.10;91.50;;;;;;5093204;28;20262;-89
2021/08/15 05:35:22;;;;;;;10.80;4.95;;;15.10;91.40;;;;;;5094869;28;20194;-89
2021/08/15 05:37:48;;;;;;;7.67;4.50;;;15.10;91.30;;;;;;5094549;28;20773;-89
2021/08/15 05:40:14;;;;;;;8.97;4.00;;;15.00;91.30;;;;;;5093894;28;20195;-89
2021/08/15 05:42:40;;;;;;;7.73;3.97;;;15.20;91.40;;;;;;5091984;28;20181;-89
2021/08/15 05:45:06;;;;;;;5.70;4.10;;;15.20;91.20;;;;;;5093049;28;20673;-89
2021/08/15 05:47:32;;;;;;;13.48;4.13;;;15.10;91.10;;;;;;5092511;28;20662;-89
2021/08/15 05:49:58;;;;;;;5.90;3.85;;;15.30;91.10;;;;;;5091622;28;20222;-89
2021/08/15 05:52:25;;;;;;;9.02;3.90;;;15.20;90.80;;;;;;5092323;28;20209;-89
2021/08/15 05:54:51;;;;;;;10.00;3.87;;;15.20;90.70;;;;;;5092796;28;20175;-89
2021/08/15 05:57:17;;;;;;;10.53;4.07;;;15.20;90.80;;;;;;5091815;28;20242;-89
2021/08/15 05:59:43;;;;;;;7.90;4.13;;;15.20;90.90;;;;;;5091234;28;20190;-90
2021/08/15 06:02:09;;;;;;;17.60;4.57;;;15.20;90.70;;;;;;5083064;28;20175;-89
2021/08/15 06:04:35;;;;;;;8.70;3.72;;;15.10;90.50;;;;;;5078396;28;20568;-89
2021/08/15 06:07:01;;;;;;;9.57;4.13;;;15.10;90.40;;;;;;5078897;28;20270;-89
2021/08/15 06:09:27;;;;;;;7.70;3.67;;;15.20;90.50;;;;;;5079424;28;20210;-89
2021/08/15 06:11:52;;;;;;;8.90;4.07;;;15.20;90.40;;;;;;5079906;28;20179;-89
2021/08/15 06:14:18;;;;;;;7.68;4.13;;;15.10;90.30;;;;;;5079298;28;20179;-89
2021/08/15 06:16:45;;;;;;;5.50;3.63;;;15.20;90.30;;;;;;5077826;28;20266;-89
2021/08/15 06:19:11;;;;;;;6.68;3.95;;;15.30;90.30;;;;;;5078241;28;20267;-89
2021/08/15 06:21:36;;;;;;;9.37;3.60;;;15.30;90.10;;;;;;5077178;28;20217;-89
2021/08/15 06:24:03;;;;;;;8.85;3.55;;;15.40;90.10;;;;;;5077681;28;20179;-90
2021/08/15 06:26:29;;;;;;;9.60;3.97;;;15.40;90.00;;;;;;5079049;28;20258;-89
2021/08/15 06:28:55;;;;;;;7.93;3.67;;;15.50;89.80;;;;;;5077270;28;20663;-89
2021/08/15 06:31:22;;;;;;;7.88;3.47;;;15.40;89.60;;;;;;5078125;28;20218;-89
2021/08/15 06:33:48;;;;;;;7.20;3.65;;;15.50;89.70;;;;;;5078172;28;20191;-89
2021/08/15 06:36:13;;;;;;;11.18;3.67;;;15.30;89.50;;;;;;5078248;28;20225;-89
2021/08/15 06:38:39;;;;;;;8.80;3.55;;;15.20;89.70;;;;;;5077028;28;20179;-89
2021/08/15 06:41:05;;;;;;;8.45;3.40;;;15.20;89.90;;;;;;5075658;28;20199;-87
2021/08/15 06:43:30;;;;;;;5.82;3.10;;;15.30;90.00;;;;;;5074344;28;20180;-87
2021/08/15 06:45:56;;;;;;;7.95;3.28;;;15.30;90.00;;;;;;5074487;28;20191;-86
2021/08/15 06:48:22;;;;;;;11.52;3.53;;;15.40;90.00;;;;;;5074749;28;20179;-87
2021/08/15 06:50:53;;;;;;;8.18;3.20;;;15.50;89.90;;;;;;5075738;28;20707;-87
2021/08/15 06:53:21;;;;;;;9.60;3.53;;;15.50;89.90;;;;;;5075440;28;20259;-87
2021/08/15 06:55:46;;;;;;;10.45;3.90;;;15.40;90.10;;;;;;5075718;28;20536;-87
2021/08/15 06:58:12;;;;;;;11.32;3.67;;;15.40;90.10;;;;;;5074187;28;20167;-86
2021/08/15 07:00:37;;;;;;;8.57;4.10;;;15.40;90.20;;;;;;5074274;28;20675;-86
2021/08/15 07:03:03;;;;;;;7.25;4.25;;;15.40;90.30;;;;;;5074197;28;20175;-87
2021/08/15 07:05:29;;;;;;;12.55;4.90;;;15.30;90.70;;;;;;5074259;28;20175;-87
2021/08/15 07:07:55;;;;;;;10.90;5.03;;;15.30;90.80;;;;;;5073726;28;20237;-86
2021/08/15 07:10:20;;;;;;;9.50;4.63;;;15.30;91.10;;;;;;5073422;28;20207;-86
2021/08/15 07:12:52;;;;;;;10.65;5.45;;;15.30;91.20;;;;;;5073092;28;20171;-86
2021/08/15 07:15:18;;;;;;;12.38;5.13;;;15.30;91.20;;;;;;5073358;28;20688;-87
2021/08/15 07:17:44;;;;;;;12.10;5.20;;;15.20;91.30;;;;;;5073562;28;20175;-86
2021/08/15 07:20:10;;;;;;;11.47;6.10;;;15.20;91.50;;;;;;5073391;28;20201;-87
2021/08/15 07:22:36;;;;;;;13.07;6.27;;;15.20;91.70;;;;;;5074838;28;20169;-86
2021/08/15 07:25:03;;;;;;;13.03;6.13;;;15.20;92.10;;;;;;5075808;28;20262;-89
2021/08/15 07:27:29;;;;;;;10.00;5.97;;;15.30;92.40;;;;;;5077695;28;20176;-89
2021/08/15 07:29:55;;;;;;;14.30;6.23;;;15.30;92.30;;;;;;5077483;28;20203;-89
2021/08/15 07:32:20;;;;;;;11.43;6.67;;;15.30;92.00;;;;;;5076578;28;20190;-89
2021/08/15 07:34:46;;;;;;;9.63;5.53;;;15.30;92.10;;;;;;5076751;28;20186;-89
2021/08/15 07:37:12;;;;;;;8.68;5.95;;;15.50;92.20;;;;;;5075637;28;20175;-89
2021/08/15 07:39:37;;;;;;;13.43;5.20;;;15.50;92.00;;;;;;5076700;28;20274;-89
2021/08/15 07:42:03;;;;;;;8.48;5.55;;;15.70;92.00;;;;;;5075397;28;20532;-89
2021/08/15 07:44:29;;;;;;;8.95;5.13;;;15.70;91.70;;;;;;5076388;28;20187;-89
2021/08/15 07:46:55;;;;;;;6.07;4.40;;;15.70;91.50;;;;;;5075743;28;20175;-89
2021/08/15 07:49:20;;;;;;;10.13;4.97;;;15.60;91.10;;;;;;5076067;28;20167;-89
2021/08/15 07:51:46;;;;;;;12.07;5.32;;;15.70;91.30;;;;;;5076540;28;20203;-89
2021/08/15 07:54:11;;;;;;;8.98;4.90;;;15.80;91.10;;;;;;5075173;28;20178;-89
2021/08/15 07:56:37;;;;;;;13.73;5.10;;;15.90;91.20;;;;;;5076267;28;20210;-89
2021/08/15 07:59:03;;;;;;;8.73;5.00;;;16.00;90.90;;;;;;5076044;28;20203;-89
2021/08/15 08:01:29;;;;;;;8.48;4.63;;;15.90;90.70;;;;;;5075522;28;20682;-87
2021/08/15 08:03:54;;;;;;;11.18;4.43;;;15.90;89.70;;;;;;5073990;28;20175;-87
2021/08/15 08:06:20;;;;;;;7.20;3.92;;;15.80;90.10;;;;;;5073061;28;20171;-87
2021/08/15 08:08:45;;;;;;;10.65;5.47;;;15.90;90.30;;;;;;5073056;28;20175;-87
2021/08/15 08:11:11;;;;;;;7.95;4.88;;;16.00;90.50;;;;;;5073873;28;20706;-87
2021/08/15 08:13:37;;;;;;;14.50;6.03;;;16.10;90.70;;;;;;5073009;28;20171;-87
2021/08/15 08:16:02;;;;;;;10.95;5.88;;;16.10;90.30;;;;;;5072876;28;20171;-86
2021/08/15 08:18:28;;;;;;;10.95;5.32;;;16.20;90.20;;;;;;5073715;28;20213;-86
2021/08/15 08:20:54;;;;;;;8.63;5.38;;;16.20;89.80;;;;;;5072242;28;20191;-86
2021/08/15 08:23:20;;;;;;;10.43;6.22;;;16.20;89.80;;;;;;5073684;28;20209;-87
2021/08/15 08:25:47;;;;;;;12.98;5.88;;;16.30;89.90;;;;;;5072155;28;20270;-86
2021/08/15 08:28:13;;;;;;;14.32;6.15;;;16.40;89.60;;;;;;5072508;28;20201;-86
2021/08/15 08:30:39;;;;;;;12.63;5.82;;;16.50;89.80;;;;;;5072152;28;20555;-86
2021/08/15 08:33:05;;;;;;;7.40;5.45;;;16.60;89.80;;;;;;5072302;28;20643;-86
2021/08/15 08:35:31;;;;;;;9.98;6.45;;;16.60;89.70;;;;;;5072380;28;20209;-86
2021/08/15 08:37:56;;;;;;;12.02;5.82;;;16.70;89.90;;;;;;5072338;28;20270;-86
2021/08/15 08:40:22;;;;;;;11.05;6.15;;;16.70;89.50;;;;;;5072131;28;20286;-86
2021/08/15 08:42:49;;;;;;;10.95;5.22;;;16.60;89.90;;;;;;5072159;28;20179;-86
2021/08/15 08:45:19;;;;;;;15.90;5.28;;;16.70;90.10;;;;;;5073258;28;20176;-86
2021/08/15 08:47:46;;;;;;;7.60;5.38;;;16.80;90.20;;;;;;5072334;28;20202;-86
2021/08/15 08:50:12;;;;;;;10.13;5.47;;;16.70;90.20;;;;;;5071805;28;20234;-86
2021/08/15 08:52:37;;;;;;;11.65;5.40;;;16.90;90.50;;;;;;5072121;28;20260;-85
2021/08/15 08:55:05;;;;;;;15.60;9.93;;;17.00;90.50;;;;;;5072429;28;20650;-86
2021/08/15 08:57:31;;;;;;;10.13;6.80;;;17.10;90.30;;;;;;5073034;28;20220;-85
2021/08/15 08:59:58;;;;;;;10.52;6.40;;;17.10;90.00;;;;;;5073361;28;20614;-86
2021/08/15 09:02:24;;;;;;;13.75;6.55;;;17.20;89.90;;;;;;5072149;28;20175;-86
2021/08/15 09:04:49;;;;;;;8.48;5.75;;;17.20;89.80;;;;;;5071902;28;20229;-85
2021/08/15 09:07:21;;;;;;;10.02;6.43;;;17.20;89.50;;;;;;5072127;28;20174;-85
2021/08/15 09:09:51;;;;;;;12.15;6.60;;;17.30;89.90;;;;;;5071903;28;20246;-85
2021/08/15 09:12:17;;;;;;;10.68;7.60;;;17.30;89.30;;;;;;5071852;28;20179;-85
2021/08/15 09:14:44;;;;;;;12.90;8.40;;;17.10;89.10;;;;;;5071846;28;20167;-85
2021/08/15 09:17:10;;;;;;;14.20;8.32;;;16.90;89.40;;;;;;5071766;28;20266;-85
2021/08/15 09:19:47;;;;;;;12.63;8.32;;;17.00;89.70;;;;;;5073005;28;20210;-85
2021/08/15 09:22:24;;;;;;;11.52;8.20;;;17.10;89.90;;;;;;5071801;28;20217;-86
2021/08/15 09:24:51;;;;;;;10.40;8.05;;;17.10;90.00;;;;;;5073137;28;20246;-86
2021/08/15 09:27:26;;;;;;;13.70;8.77;;;17.10;89.80;;;;;;5072565;28;20172;-85
2021/08/15 09:30:07;;;;;;;14.25;8.73;;;17.10;89.90;;;;;;5071882;28;20248;-86
2021/08/15 09:32:34;;;;;;;15.02;8.93;;;17.10;89.80;;;;;;5071753;28;20220;-85
2021/08/15 09:35:01;;;;;;;17.75;11.05;;;17.20;89.60;;;;;;5072813;28;20168;-85
2021/08/15 09:37:32;;;;;;;19.60;11.00;;;17.30;89.90;;;;;;5073756;28;20581;-86
2021/08/15 09:39:58;;;;;;;22.75;11.70;;;17.30;89.60;;;;;;5075151;28;20218;-86
2021/08/15 09:42:42;;;;;;;20.75;11.32;;;17.30;89.40;;;;;;5075198;28;20643;-86
2021/08/15 09:45:16;;;;;;;21.98;13.73;;;17.30;89.90;;;;;;5076489;28;20175;-86
2021/08/15 09:47:43;;;;;;;22.20;13.75;;;17.40;89.60;;;;;;5075194;28;20175;-86
2021/08/15 09:50:18;;;;;;;23.73;14.30;;;17.30;89.30;;;;;;5075188;28;20226;-86
2021/08/15 09:52:45;;;;;;;18.83;12.88;;;17.40;89.60;;;;;;5075138;28;20178;-85
2021/08/15 09:55:12;;;;;;;20.95;12.65;;;17.50;89.60;;;;;;5075038;28;20198;-86
2021/08/15 09:57:38;;;;;;;23.35;13.30;;;17.50;89.30;;;;;;5075037;28;20175;-86
2021/08/15 10:00:06;;;;;;;21.23;12.63;;;17.50;89.20;;;;;;5074918;28;20206;-86
2021/08/15 10:02:32;;;;;;;20.27;12.02;;;17.50;89.10;;;;;;5076116;28;20171;-85
2021/08/15 10:04:58;;;;;;;19.98;12.43;;;17.70;89.50;;;;;;5076385;28;20257;-87
2021/08/15 10:07:24;;;;;;;14.20;11.25;;;17.70;89.10;;;;;;5076743;28;20175;-87
2021/08/15 10:09:51;;;;;;;17.05;11.52;;;17.70;89.20;;;;;;5076391;28;20690;-87
2021/08/15 10:12:18;;;;;;;20.35;11.50;;;17.70;88.50;;;;;;5076718;28;20565;-85
2021/08/15 10:14:45;;;;;;;24.20;10.70;;;17.70;89.10;;;;;;5076152;28;20167;-85
2021/08/15 10:17:21;;;;;;;21.50;11.80;;;17.70;88.30;;;;;;5075275;28;20171;-85
2021/08/15 10:20:09;;;;;;;22.05;12.75;;;17.80;88.50;;;;;;5075445;28;20694;-86
2021/08/15 10:22:39;;;;;;;21.05;11.63;;;17.80;88.60;;;;;;5074885;28;20274;-85
2021/08/15 10:25:07;;;;;;;24.17;14.57;;;17.90;88.80;;;;;;5076079;28;20174;-85
2021/08/15 10:27:39;;;;;;;21.95;13.40;;;17.80;88.00;;;;;;5074452;28;20171;-85
2021/08/15 10:30:14;;;;;;;20.70;11.57;;;17.90;88.40;;;;;;5075661;28;20286;-85
2021/08/15 10:32:55;;;;;;;16.02;11.80;;;18.00;87.60;;;;;;5074515;28;20159;-85
2021/08/15 10:35:32;;;;;;;15.20;10.05;;;18.10;87.90;;;;;;5075647;28;20208;-85
2021/08/15 10:38:28;;;;;;;20.30;11.13;;;18.10;86.80;;;;;;5076069;28;20159;-86
2021/08/15 10:40:54;;;;;;;23.00;11.43;;;18.10;86.90;;;;;;5075922;28;20237;-86
2021/08/15 10:43:23;;;;;;;14.52;9.18;;;18.20;87.20;;;;;;5075873;28;20175;-86
2021/08/15 10:46:07;;;;;;;19.10;9.80;;;18.20;86.60;;;;;;5075986;28;20528;-86
2021/08/15 10:49:06;;;;;;;15.63;9.55;;;18.40;87.40;;;;;;5075332;28;20175;-87
2021/08/15 10:51:49;;;;;;;18.88;9.68;;;18.60;85.50;;;;;;5075910;28;20290;-86
2021/08/15 10:54:38;;;;;;;17.25;10.20;;;18.50;85.80;;;;;;5076342;28;20163;-87
2021/08/15 10:57:04;;;;;;;16.92;9.60;;;18.60;85.10;;;;;;5071799;28;20221;-87
2021/08/15 10:59:41;;;;;;;17.73;9.75;;;18.80;84.70;;;;;;5074411;28;20199;-87
2021/08/15 11:02:18;;;;;;;18.50;9.82;;;18.70;84.50;;;;;;5075690;28;20168;-87
2021/08/15 11:05:03;;;;;;;22.45;9.93;;;18.80;83.40;;;;;;5074120;28;20175;-86
2021/08/15 11:07:39;;;;;;;17.08;9.52;;;19.00;84.50;;;;;;5075207;28;20154;-86
2021/08/15 11:10:06;;;;;;;21.13;8.88;;;19.20;84.20;;;;;;5074832;28;20198;-87
2021/08/15 11:12:32;;;;;;;14.13;8.85;;;19.40;83.90;;;;;;5074731;28;20167;-87
2021/08/15 11:15:08;;;;;;;15.20;9.55;;;19.30;82.90;;;;;;5074897;28;20244;-87
2021/08/15 11:17:36;;;;;;;22.90;11.48;;;19.50;82.80;;;;;;5073489;28;20639;-87
2021/08/15 11:20:32;;;;;;;23.27;11.95;;;19.60;83.60;;;;;;5073363;28;20222;-87
2021/08/15 11:23:10;;;;;;;23.88;11.95;;;19.50;83.40;;;;;;5073327;28;20287;-87
2021/08/15 11:25:35;;;;;;;30.45;14.23;;;19.40;83.40;;;;;;5073784;28;20206;-87
2021/08/15 11:28:01;;;;;;;28.63;12.70;;;19.50;83.90;;;;;;5073280;28;20179;-87
2021/08/15 11:30:27;;;;;;;24.63;13.45;;;19.60;84.50;;;;;;5074477;28;20581;-87
2021/08/15 11:32:55;;;;;;;23.88;11.85;;;19.80;83.00;;;;;;5074342;28;20168;-86
2021/08/15 11:35:21;;;;;;;24.85;12.30;;;20.00;81.00;;;;;;5073874;28;20182;-87
2021/08/15 11:37:52;;;;;;;23.15;13.45;;;20.20;80.90;;;;;;5073101;28;20221;-87
2021/08/15 11:40:28;;;;;;;26.13;12.10;;;20.20;80.00;;;;;;5072907;28;20751;-87
2021/08/15 11:42:55;;;;;;;26.05;11.77;;;20.70;82.90;;;;;;5073013;28;20185;-87
2021/08/15 11:45:36;;;;;;;31.20;13.50;;;21.10;81.20;;;;;;5074136;28;20173;-87
2021/08/15 11:48:10;;;;;;;22.52;13.02;;;21.20;78.30;;;;;;5074161;28;20163;-86
2021/08/15 11:50:41;;;;;;;27.70;13.32;;;20.90;80.40;;;;;;5072704;28;20218;-86
2021/08/15 11:53:37;;;;;;;25.38;13.48;;;21.00;79.10;;;;;;5073713;28;20164;-87
2021/08/15 11:56:12;;;;;;;22.92;11.70;;;21.10;78.00;;;;;;5068688;28;20184;-87
2021/08/15 11:58:44;;;;;;;22.45;12.55;;;21.50;79.80;;;;;;5072665;28;20171;-87
2021/08/15 12:01:10;;;;;;;27.38;12.60;;;21.20;79.10;;;;;;5072227;28;20195;-87
2021/08/15 12:03:36;;;;;;;21.75;11.45;;;21.50;78.00;;;;;;5072867;28;20286;-86
2021/08/15 12:06:05;;;;;;;19.52;11.63;;;21.10;78.80;;;;;;5072517;28;20179;-86
2021/08/15 12:08:49;;;;;;;22.13;12.00;;;21.30;78.70;;;;;;5072449;28;20694;-87
2021/08/15 12:11:22;;;;;;;20.92;11.18;;;21.60;78.50;;;;;;5072424;28;20242;-87
2021/08/15 12:13:49;;;;;;;17.75;10.00;;;21.70;77.90;;;;;;5073669;28;20167;-87
2021/08/15 12:16:15;;;;;;;21.33;10.05;;;22.00;77.40;;;;;;5072430;28;20172;-87
2021/08/15 12:18:50;;;;;;;23.85;10.82;;;21.90;76.60;;;;;;5072380;28;20171;-87
2021/08/15 12:21:31;;;;;;;17.38;9.40;;;22.20;76.90;;;;;;5072333;28;20190;-87
2021/08/15 12:24:00;;;;;;;16.30;10.07;;;22.40;75.40;;;;;;5073085;28;20174;-87
2021/08/15 12:26:30;;;;;;;16.73;9.90;;;22.10;73.60;;;;;;5072332;28;20644;-87
2021/08/15 12:28:59;;;;;;;22.10;9.82;;;22.30;76.20;;;;;;5072295;28;20183;-87
2021/08/15 12:31:27;;;;;;;23.38;10.60;;;22.80;74.60;;;;;;5072549;28;20219;-87
2021/08/15 12:34:19;;;;;;;22.95;10.30;;;22.50;71.80;;;;;;5072427;28;20174;-87
2021/08/15 12:36:48;;;;;;;21.30;10.32;;;22.60;73.90;;;;;;5071348;28;20647;-87
2021/08/15 12:39:15;;;;;;;19.13;8.70;;;22.50;73.10;;;;;;5073346;28;20171;-87